sensor_id;sensor_type;location;lat;lon;timestamp;temperature;humidity
30459;DHT22;74163;50.912;6.918;2024-03-02T00:00:13;8.70;94.10
30459;DHT22;74163;50.912;6.918;2024-03-02T00:00:49;8.60;94.10
30459;DHT22;74163;50.912;6.918;2024-03-02T00:01:23;8.60;94.10
30459;DHT22;74163;50.912;6.918;2024-03-02T00:01:54;8.70;94.10
30459;DHT22;74163;50.912;6.918;2024-03-02T00:02:26;8.60;94.10
30459;DHT22;74163;50.912;6.918;2024-03-02T00:02:58;8.70;94.10
30459;DHT22;74163;50.912;6.918;2024-03-02T00:03:30;8.60;94.10
30459;DHT22;74163;50.912;6.918;2024-03-02T00:04:03;8.70;94.10
30459;DHT22;74163;50.912;6.918;2024-03-02T00:04:35;8.70;94.20
30459;DHT22;74163;50.912;6.918;2024-03-02T00:05:07;8.60;94.20
30459;DHT22;74163;50.912;6.918;2024-03-02T00:05:41;8.60;94.30
30459;DHT22;74163;50.912;6.918;2024-03-02T00:06:13;8.70;94.30
30459;DHT22;74163;50.912;6.918;2024-03-02T00:06:45;8.60;94.40
30459;DHT22;74163;50.912;6.918;2024-03-02T00:07:17;8.60;94.30
30459;DHT22;74163;50.912;6.918;2024-03-02T00:07:53;8.70;94.30
30459;DHT22;74163;50.912;6.918;2024-03-02T00:08:26;8.70;94.30
30459;DHT22;74163;50.912;6.918;2024-03-02T00:08:58;8.70;94.20
30459;DHT22;74163;50.912;6.918;2024-03-02T00:09:30;8.70;94.10
30459;DHT22;74163;50.912;6.918;2024-03-02T00:10:08;8.70;94.10
30459;DHT22;74163;50.912;6.918;2024-03-02T00:10:40;8.70;94.10
30459;DHT22;74163;50.912;6.918;2024-03-02T00:11:13;8.70;94.10
30459;DHT22;74163;50.912;6.918;2024-03-02T00:11:45;8.70;94.10
30459;DHT22;74163;50.912;6.918;2024-03-02T00:12:17;8.80;94.10
30459;DHT22;74163;50.912;6.918;2024-03-02T00:12:48;8.80;94.00
30459;DHT22;74163;50.912;6.918;2024-03-02T00:13:21;8.70;94.00
30459;DHT22;74163;50.912;6.918;2024-03-02T00:13:53;8.80;94.00
30459;DHT22;74163;50.912;6.918;2024-03-02T00:14:25;8.80;93.90
30459;DHT22;74163;50.912;6.918;2024-03-02T00:14:56;8.80;93.90
30459;DHT22;74163;50.912;6.918;2024-03-02T00:15:40;8.80;93.90
30459;DHT22;74163;50.912;6.918;2024-03-02T00:16:12;8.90;93.80
30459;DHT22;74163;50.912;6.918;2024-03-02T00:16:45;8.90;93.60
30459;DHT22;74163;50.912;6.918;2024-03-02T00:17:24;8.90;93.60
30459;DHT22;74163;50.912;6.918;2024-03-02T00:17:56;8.90;93.50
30459;DHT22;74163;50.912;6.918;2024-03-02T00:18:31;8.90;93.50
30459;DHT22;74163;50.912;6.918;2024-03-02T00:19:05;8.90;93.40
30459;DHT22;74163;50.912;6.918;2024-03-02T00:19:39;8.90;93.40
30459;DHT22;74163;50.912;6.918;2024-03-02T00:20:11;8.80;93.40
30459;DHT22;74163;50.912;6.918;2024-03-02T00:20:47;8.80;93.40
30459;DHT22;74163;50.912;6.918;2024-03-02T00:21:19;8.90;93.30
30459;DHT22;74163;50.912;6.918;2024-03-02T00:21:50;8.90;93.30
30459;DHT22;74163;50.912;6.918;2024-03-02T00:22:22;8.90;93.20
30459;DHT22;74163;50.912;6.918;2024-03-02T00:22:58;8.90;93.20
30459;DHT22;74163;50.912;6.918;2024-03-02T00:23:32;9.00;93.10
30459;DHT22;74163;50.912;6.918;2024-03-02T00:24:12;9.00;93.00
30459;DHT22;74163;50.912;6.918;2024-03-02T00:24:51;9.00;92.90
30459;DHT22;74163;50.912;6.918;2024-03-02T00:25:23;9.00;92.80
30459;DHT22;74163;50.912;6.918;2024-03-02T00:25:55;9.00;92.70
30459;DHT22;74163;50.912;6.918;2024-03-02T00:26:27;9.00;92.60
30459;DHT22;74163;50.912;6.918;2024-03-02T00:26:58;9.10;92.60
30459;DHT22;74163;50.912;6.918;2024-03-02T00:27:30;9.10;92.60
30459;DHT22;74163;50.912;6.918;2024-03-02T00:28:02;9.10;92.40
30459;DHT22;74163;50.912;6.918;2024-03-02T00:28:36;9.00;92.30
30459;DHT22;74163;50.912;6.918;2024-03-02T00:29:08;9.00;92.30
30459;DHT22;74163;50.912;6.918;2024-03-02T00:29:40;9.10;92.40
30459;DHT22;74163;50.912;6.918;2024-03-02T00:30:38;9.00;92.40
30459;DHT22;74163;50.912;6.918;2024-03-02T00:31:14;9.00;92.60
30459;DHT22;74163;50.912;6.918;2024-03-02T00:31:47;9.00;92.60
30459;DHT22;74163;50.912;6.918;2024-03-02T00:32:22;9.10;92.60
30459;DHT22;74163;50.912;6.918;2024-03-02T00:32:54;9.10;92.60
30459;DHT22;74163;50.912;6.918;2024-03-02T00:33:32;9.00;92.50
30459;DHT22;74163;50.912;6.918;2024-03-02T00:34:06;9.10;92.50
30459;DHT22;74163;50.912;6.918;2024-03-02T00:34:38;9.10;92.50
30459;DHT22;74163;50.912;6.918;2024-03-02T00:35:09;9.10;92.40
30459;DHT22;74163;50.912;6.918;2024-03-02T00:35:44;9.00;92.30
30459;DHT22;74163;50.912;6.918;2024-03-02T00:36:22;9.00;92.40
30459;DHT22;74163;50.912;6.918;2024-03-02T00:36:57;9.00;92.40
30459;DHT22;74163;50.912;6.918;2024-03-02T00:37:32;9.00;92.40
30459;DHT22;74163;50.912;6.918;2024-03-02T00:38:04;9.00;92.40
30459;DHT22;74163;50.912;6.918;2024-03-02T00:38:44;9.00;92.60
30459;DHT22;74163;50.912;6.918;2024-03-02T00:39:16;9.00;92.40
30459;DHT22;74163;50.912;6.918;2024-03-02T00:39:49;9.10;92.30
30459;DHT22;74163;50.912;6.918;2024-03-02T00:40:21;9.00;92.20
30459;DHT22;74163;50.912;6.918;2024-03-02T00:40:52;9.00;92.10
30459;DHT22;74163;50.912;6.918;2024-03-02T00:41:26;9.00;92.20
30459;DHT22;74163;50.912;6.918;2024-03-02T00:41:59;9.00;92.10
30459;DHT22;74163;50.912;6.918;2024-03-02T00:42:31;9.10;92.20
30459;DHT22;74163;50.912;6.918;2024-03-02T00:43:03;9.10;92.20
30459;DHT22;74163;50.912;6.918;2024-03-02T00:43:47;9.00;92.20
30459;DHT22;74163;50.912;6.918;2024-03-02T00:44:23;9.10;92.20
30459;DHT22;74163;50.912;6.918;2024-03-02T00:44:56;9.10;92.20
30459;DHT22;74163;50.912;6.918;2024-03-02T00:45:28;9.10;92.10
30459;DHT22;74163;50.912;6.918;2024-03-02T00:46:00;9.10;92.10
30459;DHT22;74163;50.912;6.918;2024-03-02T00:46:34;9.10;92.10
30459;DHT22;74163;50.912;6.918;2024-03-02T00:47:07;9.10;92.10
30459;DHT22;74163;50.912;6.918;2024-03-02T00:47:39;9.10;92.10
30459;DHT22;74163;50.912;6.918;2024-03-02T00:48:11;9.10;92.10
30459;DHT22;74163;50.912;6.918;2024-03-02T00:48:56;9.10;92.10
30459;DHT22;74163;50.912;6.918;2024-03-02T00:49:28;9.20;92.00
30459;DHT22;74163;50.912;6.918;2024-03-02T00:50:00;9.10;91.80
30459;DHT22;74163;50.912;6.918;2024-03-02T00:50:35;9.20;91.80
30459;DHT22;74163;50.912;6.918;2024-03-02T00:51:06;9.20;91.80
30459;DHT22;74163;50.912;6.918;2024-03-02T00:51:42;9.20;91.70
30459;DHT22;74163;50.912;6.918;2024-03-02T00:52:17;9.20;91.60
30459;DHT22;74163;50.912;6.918;2024-03-02T00:52:49;9.20;91.60
30459;DHT22;74163;50.912;6.918;2024-03-02T00:53:23;9.20;91.70
30459;DHT22;74163;50.912;6.918;2024-03-02T00:53:58;9.20;91.70
30459;DHT22;74163;50.912;6.918;2024-03-02T00:54:30;9.10;91.70
30459;DHT22;74163;50.912;6.918;2024-03-02T00:55:02;9.10;91.80
30459;DHT22;74163;50.912;6.918;2024-03-02T00:55:36;9.20;91.90
30459;DHT22;74163;50.912;6.918;2024-03-02T00:56:09;9.10;91.90
30459;DHT22;74163;50.912;6.918;2024-03-02T00:56:42;9.10;91.80
30459;DHT22;74163;50.912;6.918;2024-03-02T00:57:14;9.20;91.80
30459;DHT22;74163;50.912;6.918;2024-03-02T00:57:46;9.10;91.70
30459;DHT22;74163;50.912;6.918;2024-03-02T00:58:18;9.10;91.80
30459;DHT22;74163;50.912;6.918;2024-03-02T00:58:50;9.10;91.80
30459;DHT22;74163;50.912;6.918;2024-03-02T00:59:22;9.10;91.80
30459;DHT22;74163;50.912;6.918;2024-03-02T00:59:54;9.10;91.90
30459;DHT22;74163;50.912;6.918;2024-03-02T01:00:26;9.10;91.90
30459;DHT22;74163;50.912;6.918;2024-03-02T01:00:58;9.10;91.90
30459;DHT22;74163;50.912;6.918;2024-03-02T01:01:30;9.10;91.80
30459;DHT22;74163;50.912;6.918;2024-03-02T01:02:02;9.10;91.80
30459;DHT22;74163;50.912;6.918;2024-03-02T01:02:35;9.00;91.70
30459;DHT22;74163;50.912;6.918;2024-03-02T01:03:07;9.00;91.80
30459;DHT22;74163;50.912;6.918;2024-03-02T01:03:38;9.00;91.80
30459;DHT22;74163;50.912;6.918;2024-03-02T01:04:10;9.00;91.90
30459;DHT22;74163;50.912;6.918;2024-03-02T01:04:42;9.00;91.90
30459;DHT22;74163;50.912;6.918;2024-03-02T01:05:14;9.00;92.00
30459;DHT22;74163;50.912;6.918;2024-03-02T01:05:46;9.00;92.00
30459;DHT22;74163;50.912;6.918;2024-03-02T01:06:18;9.00;92.10
30459;DHT22;74163;50.912;6.918;2024-03-02T01:06:50;9.00;92.20
30459;DHT22;74163;50.912;6.918;2024-03-02T01:07:22;9.00;92.20
30459;DHT22;74163;50.912;6.918;2024-03-02T01:07:54;9.00;92.20
30459;DHT22;74163;50.912;6.918;2024-03-02T01:08:26;8.90;92.30
30459;DHT22;74163;50.912;6.918;2024-03-02T01:08:58;8.90;92.30
30459;DHT22;74163;50.912;6.918;2024-03-02T01:09:29;8.90;92.70
30459;DHT22;74163;50.912;6.918;2024-03-02T01:10:01;8.90;92.60
30459;DHT22;74163;50.912;6.918;2024-03-02T01:10:33;8.80;92.60
30459;DHT22;74163;50.912;6.918;2024-03-02T01:11:05;8.90;92.70
30459;DHT22;74163;50.912;6.918;2024-03-02T01:11:37;8.80;92.80
30459;DHT22;74163;50.912;6.918;2024-03-02T01:12:09;8.70;93.00
30459;DHT22;74163;50.912;6.918;2024-03-02T01:12:41;8.70;93.10
30459;DHT22;74163;50.912;6.918;2024-03-02T01:13:13;8.70;93.20
30459;DHT22;74163;50.912;6.918;2024-03-02T01:13:48;8.70;93.20
30459;DHT22;74163;50.912;6.918;2024-03-02T01:14:20;8.80;93.30
30459;DHT22;74163;50.912;6.918;2024-03-02T01:14:51;8.70;93.30
30459;DHT22;74163;50.912;6.918;2024-03-02T01:15:23;8.70;93.30
30459;DHT22;74163;50.912;6.918;2024-03-02T01:15:55;8.70;93.30
30459;DHT22;74163;50.912;6.918;2024-03-02T01:16:27;8.70;93.30
30459;DHT22;74163;50.912;6.918;2024-03-02T01:17:00;8.70;93.20
30459;DHT22;74163;50.912;6.918;2024-03-02T01:17:39;8.70;93.20
30459;DHT22;74163;50.912;6.918;2024-03-02T01:18:11;8.70;93.30
30459;DHT22;74163;50.912;6.918;2024-03-02T01:18:43;8.70;93.30
30459;DHT22;74163;50.912;6.918;2024-03-02T01:19:15;8.70;93.30
30459;DHT22;74163;50.912;6.918;2024-03-02T01:19:47;8.70;93.40
30459;DHT22;74163;50.912;6.918;2024-03-02T01:20:19;8.70;93.40
30459;DHT22;74163;50.912;6.918;2024-03-02T01:20:51;8.70;93.40
30459;DHT22;74163;50.912;6.918;2024-03-02T01:21:23;8.70;93.30
30459;DHT22;74163;50.912;6.918;2024-03-02T01:21:55;8.70;93.30
30459;DHT22;74163;50.912;6.918;2024-03-02T01:22:27;8.70;93.40
30459;DHT22;74163;50.912;6.918;2024-03-02T01:23:01;8.70;93.40
30459;DHT22;74163;50.912;6.918;2024-03-02T01:23:33;8.80;93.40
30459;DHT22;74163;50.912;6.918;2024-03-02T01:24:05;8.70;93.40
30459;DHT22;74163;50.912;6.918;2024-03-02T01:24:37;8.70;93.20
30459;DHT22;74163;50.912;6.918;2024-03-02T01:25:09;8.70;93.30
30459;DHT22;74163;50.912;6.918;2024-03-02T01:25:41;8.60;93.30
30459;DHT22;74163;50.912;6.918;2024-03-02T01:26:12;8.70;93.40
30459;DHT22;74163;50.912;6.918;2024-03-02T01:26:44;8.60;93.40
30459;DHT22;74163;50.912;6.918;2024-03-02T01:27:16;8.60;93.40
30459;DHT22;74163;50.912;6.918;2024-03-02T01:27:48;8.60;93.70
30459;DHT22;74163;50.912;6.918;2024-03-02T01:28:24;8.60;93.50
30459;DHT22;74163;50.912;6.918;2024-03-02T01:28:56;8.60;93.70
30459;DHT22;74163;50.912;6.918;2024-03-02T01:29:27;8.60;93.70
30459;DHT22;74163;50.912;6.918;2024-03-02T01:29:59;8.60;93.80
30459;DHT22;74163;50.912;6.918;2024-03-02T01:30:31;8.60;93.70
30459;DHT22;74163;50.912;6.918;2024-03-02T01:31:03;8.60;93.80
30459;DHT22;74163;50.912;6.918;2024-03-02T01:31:35;8.60;93.80
30459;DHT22;74163;50.912;6.918;2024-03-02T01:32:07;8.70;93.70
30459;DHT22;74163;50.912;6.918;2024-03-02T01:32:40;8.70;93.70
30459;DHT22;74163;50.912;6.918;2024-03-02T01:33:12;8.70;93.60
30459;DHT22;74163;50.912;6.918;2024-03-02T01:33:44;8.70;93.60
30459;DHT22;74163;50.912;6.918;2024-03-02T01:34:16;8.70;93.60
30459;DHT22;74163;50.912;6.918;2024-03-02T01:34:47;8.70;93.80
30459;DHT22;74163;50.912;6.918;2024-03-02T01:35:19;8.70;93.60
30459;DHT22;74163;50.912;6.918;2024-03-02T01:35:51;8.70;93.60
30459;DHT22;74163;50.912;6.918;2024-03-02T01:36:23;8.70;93.50
30459;DHT22;74163;50.912;6.918;2024-03-02T01:36:54;8.60;93.50
30459;DHT22;74163;50.912;6.918;2024-03-02T01:37:26;8.60;93.60
30459;DHT22;74163;50.912;6.918;2024-03-02T01:37:58;8.60;93.70
30459;DHT22;74163;50.912;6.918;2024-03-02T01:38:30;8.70;93.70
30459;DHT22;74163;50.912;6.918;2024-03-02T01:39:02;8.70;93.80
30459;DHT22;74163;50.912;6.918;2024-03-02T01:39:33;8.60;93.70
30459;DHT22;74163;50.912;6.918;2024-03-02T01:40:09;8.60;93.70
30459;DHT22;74163;50.912;6.918;2024-03-02T01:40:42;8.70;93.70
30459;DHT22;74163;50.912;6.918;2024-03-02T01:41:14;8.70;93.60
30459;DHT22;74163;50.912;6.918;2024-03-02T01:41:45;8.70;93.60
30459;DHT22;74163;50.912;6.918;2024-03-02T01:42:17;8.70;93.50
30459;DHT22;74163;50.912;6.918;2024-03-02T01:42:49;8.80;93.40
30459;DHT22;74163;50.912;6.918;2024-03-02T01:43:21;8.70;93.40
30459;DHT22;74163;50.912;6.918;2024-03-02T01:43:53;8.80;93.40
30459;DHT22;74163;50.912;6.918;2024-03-02T01:44:24;8.80;93.20
30459;DHT22;74163;50.912;6.918;2024-03-02T01:44:56;8.80;93.10
30459;DHT22;74163;50.912;6.918;2024-03-02T01:45:28;8.80;93.10
30459;DHT22;74163;50.912;6.918;2024-03-02T01:46:01;8.80;93.00
30459;DHT22;74163;50.912;6.918;2024-03-02T01:46:32;8.90;92.90
30459;DHT22;74163;50.912;6.918;2024-03-02T01:47:04;8.90;92.70
30459;DHT22;74163;50.912;6.918;2024-03-02T01:47:36;8.90;92.60
30459;DHT22;74163;50.912;6.918;2024-03-02T01:48:09;8.90;92.50
30459;DHT22;74163;50.912;6.918;2024-03-02T01:48:41;8.90;92.50
30459;DHT22;74163;50.912;6.918;2024-03-02T01:49:13;8.90;92.10
30459;DHT22;74163;50.912;6.918;2024-03-02T01:49:45;8.90;91.90
30459;DHT22;74163;50.912;6.918;2024-03-02T01:50:25;8.90;92.00
30459;DHT22;74163;50.912;6.918;2024-03-02T01:50:57;8.90;91.90
30459;DHT22;74163;50.912;6.918;2024-03-02T01:51:29;8.90;91.90
30459;DHT22;74163;50.912;6.918;2024-03-02T01:52:01;8.90;91.70
30459;DHT22;74163;50.912;6.918;2024-03-02T01:52:33;8.90;91.70
30459;DHT22;74163;50.912;6.918;2024-03-02T01:53:05;8.90;91.70
30459;DHT22;74163;50.912;6.918;2024-03-02T01:53:37;8.90;91.60
30459;DHT22;74163;50.912;6.918;2024-03-02T01:54:09;9.00;91.60
30459;DHT22;74163;50.912;6.918;2024-03-02T01:54:41;9.00;91.50
30459;DHT22;74163;50.912;6.918;2024-03-02T01:55:13;8.90;91.50
30459;DHT22;74163;50.912;6.918;2024-03-02T01:55:44;8.90;91.50
30459;DHT22;74163;50.912;6.918;2024-03-02T01:56:16;9.00;91.50
30459;DHT22;74163;50.912;6.918;2024-03-02T01:56:48;8.90;91.40
30459;DHT22;74163;50.912;6.918;2024-03-02T01:57:20;9.00;91.30
30459;DHT22;74163;50.912;6.918;2024-03-02T01:57:52;9.00;91.20
30459;DHT22;74163;50.912;6.918;2024-03-02T01:58:24;9.10;91.10
30459;DHT22;74163;50.912;6.918;2024-03-02T01:58:56;9.10;91.00
30459;DHT22;74163;50.912;6.918;2024-03-02T01:59:28;9.00;90.80
30459;DHT22;74163;50.912;6.918;2024-03-02T02:00:00;9.00;90.80
30459;DHT22;74163;50.912;6.918;2024-03-02T02:00:42;9.10;90.80
30459;DHT22;74163;50.912;6.918;2024-03-02T02:01:14;9.10;90.70
30459;DHT22;74163;50.912;6.918;2024-03-02T02:01:46;9.10;90.70
30459;DHT22;74163;50.912;6.918;2024-03-02T02:02:18;9.10;90.40
30459;DHT22;74163;50.912;6.918;2024-03-02T02:02:50;9.10;90.40
30459;DHT22;74163;50.912;6.918;2024-03-02T02:03:24;9.10;90.30
30459;DHT22;74163;50.912;6.918;2024-03-02T02:03:56;9.10;90.30
30459;DHT22;74163;50.912;6.918;2024-03-02T02:04:28;9.10;90.20
30459;DHT22;74163;50.912;6.918;2024-03-02T02:04:59;9.10;90.20
30459;DHT22;74163;50.912;6.918;2024-03-02T02:05:31;9.10;90.10
30459;DHT22;74163;50.912;6.918;2024-03-02T02:06:04;9.10;90.10
30459;DHT22;74163;50.912;6.918;2024-03-02T02:06:35;9.10;90.10
30459;DHT22;74163;50.912;6.918;2024-03-02T02:07:07;9.10;90.00
30459;DHT22;74163;50.912;6.918;2024-03-02T02:07:40;9.10;90.00
30459;DHT22;74163;50.912;6.918;2024-03-02T02:08:12;9.20;89.60
30459;DHT22;74163;50.912;6.918;2024-03-02T02:08:43;9.20;89.30
30459;DHT22;74163;50.912;6.918;2024-03-02T02:09:15;9.20;89.20
30459;DHT22;74163;50.912;6.918;2024-03-02T02:09:48;9.20;89.20
30459;DHT22;74163;50.912;6.918;2024-03-02T02:10:19;9.20;89.00
30459;DHT22;74163;50.912;6.918;2024-03-02T02:10:52;9.20;88.70
30459;DHT22;74163;50.912;6.918;2024-03-02T02:11:25;9.20;88.70
30459;DHT22;74163;50.912;6.918;2024-03-02T02:11:57;9.20;88.60
30459;DHT22;74163;50.912;6.918;2024-03-02T02:12:28;9.20;88.50
30459;DHT22;74163;50.912;6.918;2024-03-02T02:13:00;9.20;88.10
30459;DHT22;74163;50.912;6.918;2024-03-02T02:13:32;9.10;87.80
30459;DHT22;74163;50.912;6.918;2024-03-02T02:14:05;9.10;87.90
30459;DHT22;74163;50.912;6.918;2024-03-02T02:14:37;9.10;88.30
30459;DHT22;74163;50.912;6.918;2024-03-02T02:15:25;9.10;88.60
30459;DHT22;74163;50.912;6.918;2024-03-02T02:16:04;9.10;88.90
30459;DHT22;74163;50.912;6.918;2024-03-02T02:16:36;9.10;88.70
30459;DHT22;74163;50.912;6.918;2024-03-02T02:17:08;9.10;88.80
30459;DHT22;74163;50.912;6.918;2024-03-02T02:17:40;9.10;88.70
30459;DHT22;74163;50.912;6.918;2024-03-02T02:18:12;9.10;88.70
30459;DHT22;74163;50.912;6.918;2024-03-02T02:18:45;9.10;88.70
30459;DHT22;74163;50.912;6.918;2024-03-02T02:19:17;9.10;88.80
30459;DHT22;74163;50.912;6.918;2024-03-02T02:19:49;9.10;88.70
30459;DHT22;74163;50.912;6.918;2024-03-02T02:20:21;9.10;88.70
30459;DHT22;74163;50.912;6.918;2024-03-02T02:20:53;9.10;88.80
30459;DHT22;74163;50.912;6.918;2024-03-02T02:21:26;9.10;88.80
30459;DHT22;74163;50.912;6.918;2024-03-02T02:21:58;9.10;88.60
30459;DHT22;74163;50.912;6.918;2024-03-02T02:22:29;9.10;88.40
30459;DHT22;74163;50.912;6.918;2024-03-02T02:23:02;9.10;88.50
30459;DHT22;74163;50.912;6.918;2024-03-02T02:23:34;9.00;88.60
30459;DHT22;74163;50.912;6.918;2024-03-02T02:24:06;9.00;88.60
30459;DHT22;74163;50.912;6.918;2024-03-02T02:24:40;9.00;88.70
30459;DHT22;74163;50.912;6.918;2024-03-02T02:25:12;9.00;89.00
30459;DHT22;74163;50.912;6.918;2024-03-02T02:25:43;9.00;89.00
30459;DHT22;74163;50.912;6.918;2024-03-02T02:26:15;9.00;89.20
30459;DHT22;74163;50.912;6.918;2024-03-02T02:26:47;9.00;89.20
30459;DHT22;74163;50.912;6.918;2024-03-02T02:27:19;9.00;89.30
30459;DHT22;74163;50.912;6.918;2024-03-02T02:27:51;9.00;89.30
30459;DHT22;74163;50.912;6.918;2024-03-02T02:28:23;9.00;89.20
30459;DHT22;74163;50.912;6.918;2024-03-02T02:28:54;9.10;89.00
30459;DHT22;74163;50.912;6.918;2024-03-02T02:29:26;9.10;88.80
30459;DHT22;74163;50.912;6.918;2024-03-02T02:29:58;9.10;88.60
30459;DHT22;74163;50.912;6.918;2024-03-02T02:30:32;9.10;88.30
30459;DHT22;74163;50.912;6.918;2024-03-02T02:31:04;9.10;88.10
30459;DHT22;74163;50.912;6.918;2024-03-02T02:31:39;9.10;88.20
30459;DHT22;74163;50.912;6.918;2024-03-02T02:32:11;9.10;88.00
30459;DHT22;74163;50.912;6.918;2024-03-02T02:32:42;9.10;87.80
30459;DHT22;74163;50.912;6.918;2024-03-02T02:33:14;9.20;87.60
30459;DHT22;74163;50.912;6.918;2024-03-02T02:33:46;9.20;87.10
30459;DHT22;74163;50.912;6.918;2024-03-02T02:34:18;9.20;86.90
30459;DHT22;74163;50.912;6.918;2024-03-02T02:34:52;9.20;87.00
30459;DHT22;74163;50.912;6.918;2024-03-02T02:35:24;9.20;87.00
30459;DHT22;74163;50.912;6.918;2024-03-02T02:35:56;9.30;86.90
30459;DHT22;74163;50.912;6.918;2024-03-02T02:36:29;9.30;86.70
30459;DHT22;74163;50.912;6.918;2024-03-02T02:37:01;9.10;86.50
30459;DHT22;74163;50.912;6.918;2024-03-02T02:37:33;9.20;86.50
30459;DHT22;74163;50.912;6.918;2024-03-02T02:38:05;9.20;86.60
30459;DHT22;74163;50.912;6.918;2024-03-02T02:38:40;9.20;86.60
30459;DHT22;74163;50.912;6.918;2024-03-02T02:39:16;9.10;86.70
30459;DHT22;74163;50.912;6.918;2024-03-02T02:39:49;9.10;86.90
30459;DHT22;74163;50.912;6.918;2024-03-02T02:40:21;9.10;86.80
30459;DHT22;74163;50.912;6.918;2024-03-02T02:40:52;9.20;86.50
30459;DHT22;74163;50.912;6.918;2024-03-02T02:41:25;9.20;86.50
30459;DHT22;74163;50.912;6.918;2024-03-02T02:41:56;9.20;86.50
30459;DHT22;74163;50.912;6.918;2024-03-02T02:42:28;9.20;86.50
30459;DHT22;74163;50.912;6.918;2024-03-02T02:43:00;9.20;86.60
30459;DHT22;74163;50.912;6.918;2024-03-02T02:43:32;9.20;86.50
30459;DHT22;74163;50.912;6.918;2024-03-02T02:44:04;9.20;86.40
30459;DHT22;74163;50.912;6.918;2024-03-02T02:44:36;9.20;86.20
30459;DHT22;74163;50.912;6.918;2024-03-02T02:45:08;9.20;86.10
30459;DHT22;74163;50.912;6.918;2024-03-02T02:45:40;9.10;86.20
30459;DHT22;74163;50.912;6.918;2024-03-02T02:46:12;9.20;86.20
30459;DHT22;74163;50.912;6.918;2024-03-02T02:46:43;9.10;86.40
30459;DHT22;74163;50.912;6.918;2024-03-02T02:47:15;9.10;86.20
30459;DHT22;74163;50.912;6.918;2024-03-02T02:47:47;9.10;86.30
30459;DHT22;74163;50.912;6.918;2024-03-02T02:48:19;9.10;86.20
30459;DHT22;74163;50.912;6.918;2024-03-02T02:48:50;9.10;86.50
30459;DHT22;74163;50.912;6.918;2024-03-02T02:49:22;9.10;86.60
30459;DHT22;74163;50.912;6.918;2024-03-02T02:49:54;9.10;86.70
30459;DHT22;74163;50.912;6.918;2024-03-02T02:50:26;9.00;87.40
30459;DHT22;74163;50.912;6.918;2024-03-02T02:50:58;9.00;87.30
30459;DHT22;74163;50.912;6.918;2024-03-02T02:51:31;9.10;87.50
30459;DHT22;74163;50.912;6.918;2024-03-02T02:52:03;9.00;87.60
30459;DHT22;74163;50.912;6.918;2024-03-02T02:52:36;9.00;87.50
30459;DHT22;74163;50.912;6.918;2024-03-02T02:53:08;9.00;87.70
30459;DHT22;74163;50.912;6.918;2024-03-02T02:53:40;9.00;87.90
30459;DHT22;74163;50.912;6.918;2024-03-02T02:54:12;9.00;88.00
30459;DHT22;74163;50.912;6.918;2024-03-02T02:54:44;9.00;88.30
30459;DHT22;74163;50.912;6.918;2024-03-02T02:55:16;9.00;88.30
30459;DHT22;74163;50.912;6.918;2024-03-02T02:55:48;9.00;88.40
30459;DHT22;74163;50.912;6.918;2024-03-02T02:56:20;9.00;88.20
30459;DHT22;74163;50.912;6.918;2024-03-02T02:56:51;9.00;88.00
30459;DHT22;74163;50.912;6.918;2024-03-02T02:57:23;9.10;88.00
30459;DHT22;74163;50.912;6.918;2024-03-02T02:57:55;9.10;88.10
30459;DHT22;74163;50.912;6.918;2024-03-02T02:58:27;9.10;88.50
30459;DHT22;74163;50.912;6.918;2024-03-02T02:58:58;9.10;87.90
30459;DHT22;74163;50.912;6.918;2024-03-02T02:59:30;9.10;88.00
30459;DHT22;74163;50.912;6.918;2024-03-02T03:00:04;9.10;87.80
30459;DHT22;74163;50.912;6.918;2024-03-02T03:00:36;9.10;87.70
30459;DHT22;74163;50.912;6.918;2024-03-02T03:01:08;9.20;87.80
30459;DHT22;74163;50.912;6.918;2024-03-02T03:01:40;9.20;87.80
30459;DHT22;74163;50.912;6.918;2024-03-02T03:02:12;9.20;87.60
30459;DHT22;74163;50.912;6.918;2024-03-02T03:02:46;9.20;87.50
30459;DHT22;74163;50.912;6.918;2024-03-02T03:03:18;9.20;87.40
30459;DHT22;74163;50.912;6.918;2024-03-02T03:03:49;9.10;87.20
30459;DHT22;74163;50.912;6.918;2024-03-02T03:04:21;9.10;87.30
30459;DHT22;74163;50.912;6.918;2024-03-02T03:04:53;9.10;87.40
30459;DHT22;74163;50.912;6.918;2024-03-02T03:05:25;9.10;87.30
30459;DHT22;74163;50.912;6.918;2024-03-02T03:05:57;9.10;87.50
30459;DHT22;74163;50.912;6.918;2024-03-02T03:06:28;9.10;87.60
30459;DHT22;74163;50.912;6.918;2024-03-02T03:07:02;9.10;87.60
30459;DHT22;74163;50.912;6.918;2024-03-02T03:07:34;9.10;87.50
30459;DHT22;74163;50.912;6.918;2024-03-02T03:08:06;9.10;87.50
30459;DHT22;74163;50.912;6.918;2024-03-02T03:08:38;9.10;87.40
30459;DHT22;74163;50.912;6.918;2024-03-02T03:09:09;9.10;87.50
30459;DHT22;74163;50.912;6.918;2024-03-02T03:09:41;9.10;87.50
30459;DHT22;74163;50.912;6.918;2024-03-02T03:10:13;9.10;87.50
30459;DHT22;74163;50.912;6.918;2024-03-02T03:10:46;9.00;87.70
30459;DHT22;74163;50.912;6.918;2024-03-02T03:11:18;9.00;87.80
30459;DHT22;74163;50.912;6.918;2024-03-02T03:11:50;9.10;88.00
30459;DHT22;74163;50.912;6.918;2024-03-02T03:12:22;9.00;88.10
30459;DHT22;74163;50.912;6.918;2024-03-02T03:12:53;9.00;88.30
30459;DHT22;74163;50.912;6.918;2024-03-02T03:13:25;9.10;88.50
30459;DHT22;74163;50.912;6.918;2024-03-02T03:13:57;9.10;88.50
30459;DHT22;74163;50.912;6.918;2024-03-02T03:14:29;9.10;88.40
30459;DHT22;74163;50.912;6.918;2024-03-02T03:15:01;9.10;88.30
30459;DHT22;74163;50.912;6.918;2024-03-02T03:15:34;9.10;88.40
30459;DHT22;74163;50.912;6.918;2024-03-02T03:16:06;9.10;88.40
30459;DHT22;74163;50.912;6.918;2024-03-02T03:16:38;9.10;88.40
30459;DHT22;74163;50.912;6.918;2024-03-02T03:17:10;9.10;88.20
30459;DHT22;74163;50.912;6.918;2024-03-02T03:17:42;9.10;88.30
30459;DHT22;74163;50.912;6.918;2024-03-02T03:18:14;9.00;88.30
30459;DHT22;74163;50.912;6.918;2024-03-02T03:18:46;9.00;88.80
30459;DHT22;74163;50.912;6.918;2024-03-02T03:19:18;9.00;88.50
30459;DHT22;74163;50.912;6.918;2024-03-02T03:19:49;9.10;88.60
30459;DHT22;74163;50.912;6.918;2024-03-02T03:20:21;9.00;88.40
30459;DHT22;74163;50.912;6.918;2024-03-02T03:20:53;9.00;88.50
30459;DHT22;74163;50.912;6.918;2024-03-02T03:21:25;9.00;88.50
30459;DHT22;74163;50.912;6.918;2024-03-02T03:21:57;9.00;88.70
30459;DHT22;74163;50.912;6.918;2024-03-02T03:22:30;9.00;89.10
30459;DHT22;74163;50.912;6.918;2024-03-02T03:23:02;9.00;89.40
30459;DHT22;74163;50.912;6.918;2024-03-02T03:23:34;8.90;89.30
30459;DHT22;74163;50.912;6.918;2024-03-02T03:24:06;9.00;89.30
30459;DHT22;74163;50.912;6.918;2024-03-02T03:24:37;8.90;89.60
30459;DHT22;74163;50.912;6.918;2024-03-02T03:25:09;8.90;89.80
30459;DHT22;74163;50.912;6.918;2024-03-02T03:25:41;8.90;90.00
30459;DHT22;74163;50.912;6.918;2024-03-02T03:26:13;8.90;90.10
30459;DHT22;74163;50.912;6.918;2024-03-02T03:26:45;9.00;90.10
30459;DHT22;74163;50.912;6.918;2024-03-02T03:27:17;9.00;90.00
30459;DHT22;74163;50.912;6.918;2024-03-02T03:27:49;8.90;89.70
30459;DHT22;74163;50.912;6.918;2024-03-02T03:28:20;9.00;89.70
30459;DHT22;74163;50.912;6.918;2024-03-02T03:28:52;9.00;89.80
30459;DHT22;74163;50.912;6.918;2024-03-02T03:29:24;9.00;89.80